Time;durP1;ratioP1;P1;durP2;ratioP2;P2;SDS_P1;SDS_P2;PMS_P1;PMS_P2;Temp;Humidity;BMP_temperature;BMP_pressure;BME280_temperature;BME280_humidity;BME280_pressure;Samples;Min_cycle;Max_cycle;Signal;HPM_P1;HPM_P2
2022/08/21 00:01:50;;;;;;;28.73;11.00;;;;;18.60;96349.00;;;;8291507;28;20304;-74
2022/08/21 00:05:53;;;;;;;30.67;10.98;;;;;18.60;96344.00;;;;8296349;28;20225;-73
2022/08/21 00:10:30;;;;;;;34.33;12.23;;;;;18.50;96349.00;;;;8285280;28;20221;-74
2022/08/21 00:14:36;;;;;;;30.05;10.77;;;;;18.50;96339.00;;;;8295850;28;20328;-74
2022/08/21 00:19:10;;;;;;;34.40;11.27;;;;;18.40;96340.00;;;;8295628;28;20608;-73
2022/08/21 00:23:14;;;;;;;30.75;11.30;;;;;18.40;96341.00;;;;8294363;28;20232;-74
2022/08/21 00:27:48;;;;;;;23.98;9.93;;;;;18.50;96332.00;;;;8293956;28;20230;-75
2022/08/21 00:31:53;;;;;;;31.33;11.00;;;;;18.50;96332.00;;;;8295060;28;20220;-74
2022/08/21 00:35:56;;;;;;;28.92;11.13;;;;;18.50;96326.00;;;;8295949;28;20620;-75
2022/08/21 00:40:34;;;;;;;33.10;12.00;;;;;18.50;96329.00;;;;8294978;28;20230;-74
2022/08/21 00:44:37;;;;;;;36.38;11.35;;;;;18.40;96333.00;;;;8295097;28;20225;-74
2022/08/21 00:48:42;;;;;;;29.90;11.65;;;;;18.40;96324.00;;;;8294380;28;20241;-73
2022/08/21 00:52:46;;;;;;;33.97;11.38;;;;;18.40;96320.00;;;;8294045;28;20228;-73
2022/08/21 00:57:23;;;;;;;28.88;11.13;;;;;18.40;96322.00;;;;8295135;28;20595;-75
2022/08/21 01:01:27;;;;;;;28.15;11.20;;;;;18.30;96324.00;;;;8294144;28;20275;-74
2022/08/21 01:05:32;;;;;;;31.45;11.55;;;;;18.30;96312.00;;;;8294967;28;20217;-74
2022/08/21 01:09:35;;;;;;;27.73;10.65;;;;;18.30;96312.00;;;;8294155;28;20376;-74
2022/08/21 01:13:45;;;;;;;25.98;10.23;;;;;18.30;96317.00;;;;8294591;28;20298;-74
2022/08/21 01:17:49;;;;;;;23.40;10.88;;;;;18.20;96316.00;;;;8294347;28;20249;-74
2022/08/21 01:22:24;;;;;;;24.75;9.75;;;;;18.10;96312.00;;;;8294488;28;20317;-74
2022/08/21 01:26:31;;;;;;;26.85;10.20;;;;;18.10;96315.00;;;;8294268;28;20236;-74
2022/08/21 01:30:38;;;;;;;23.50;10.48;;;;;18.00;96302.00;;;;8292893;28;20225;-74
2022/08/21 01:35:12;;;;;;;21.52;8.95;;;;;18.00;96314.00;;;;8294191;28;20308;-75
2022/08/21 01:39:17;;;;;;;32.38;10.85;;;;;17.90;96310.00;;;;8294699;28;20244;-73
2022/08/21 01:43:51;;;;;;;40.90;11.63;;;;;17.80;96318.00;;;;8300773;28;20222;-74
2022/08/21 01:47:54;;;;;;;22.83;9.15;;;;;17.80;96323.00;;;;8300432;28;20651;-74
2022/08/21 01:52:31;;;;;;;246.52;18.20;;;;;17.70;96313.00;;;;8300152;28;20222;-74
2022/08/21 01:56:40;;;;;;;341.38;23.30;;;;;17.60;96314.00;;;;8300080;28;20719;-74
2022/08/21 02:00:43;;;;;;;98.45;10.82;;;;;17.60;96311.00;;;;8299998;28;20221;-75
2022/08/21 02:04:46;;;;;;;276.88;14.65;;;;;17.40;96309.00;;;;8299465;28;20214;-74
2022/08/21 02:09:21;;;;;;;450.13;21.83;;;;;17.30;96304.00;;;;8299449;28;20233;-75
2022/08/21 02:13:27;;;;;;;663.78;29.92;;;;;17.30;96306.00;;;;8299845;28;20230;-75
2022/08/21 02:17:38;;;;;;;226.60;13.57;;;;;17.30;96298.00;;;;8298725;28;20221;-75
2022/08/21 02:21:44;;;;;;;377.63;18.17;;;;;17.20;96297.00;;;;8299013;28;20647;-74
2022/08/21 02:25:47;;;;;;;458.10;23.52;;;;;17.20;96295.00;;;;8298897;28;20317;-73
2022/08/21 02:30:26;;;;;;;41.42;9.52;;;;;17.10;96294.00;;;;8298852;28;20252;-73
2022/08/21 02:34:29;;;;;;;243.15;14.55;;;;;17.00;96302.00;;;;8299746;28;20297;-73
2022/08/21 02:38:37;;;;;;;341.13;18.48;;;;;17.00;96288.00;;;;8298779;28;20301;-74
2022/08/21 02:42:40;;;;;;;122.20;10.30;;;;;17.00;96299.00;;;;8299045;28;20603;-73
2022/08/21 02:47:19;;;;;;;49.13;9.30;;;;;17.10;96301.00;;;;8298720;28;20236;-73
2022/08/21 02:51:22;;;;;;;374.38;21.27;;;;;17.10;96306.00;;;;8296864;28;20228;-73
2022/08/21 02:55:29;;;;;;;69.05;11.45;;;;;17.20;96307.00;;;;8297950;28;20222;-74
2022/08/21 03:00:00;;;;;;;172.55;13.20;;;;;17.20;96305.00;;;;8298311;28;20293;-73
2022/08/21 03:04:04;;;;;;;69.63;9.93;;;;;17.30;96301.00;;;;8297803;28;20220;-73
2022/08/21 03:08:39;;;;;;;60.35;8.70;;;;;17.30;96299.00;;;;8298214;28;20598;-73
2022/08/21 03:12:43;;;;;;;93.15;11.77;;;;;17.30;96301.00;;;;8297684;28;20220;-73
2022/08/21 03:16:46;;;;;;;37.70;9.75;;;;;17.30;96303.00;;;;8298005;28;20296;-73
2022/08/21 03:21:24;;;;;;;247.38;17.33;;;;;17.30;96305.00;;;;8292780;28;20218;-73
2022/08/21 03:25:28;;;;;;;290.50;17.92;;;;;17.30;96309.00;;;;8297872;28;20232;-73
2022/08/21 03:30:05;;;;;;;224.07;15.60;;;;;17.30;96304.00;;;;8297082;28;20603;-74
2022/08/21 03:34:08;;;;;;;228.20;17.33;;;;;17.40;96307.00;;;;8297298;28;20225;-74
2022/08/21 03:38:13;;;;;;;147.30;13.73;;;;;17.40;96312.00;;;;8296980;28;20598;-73
2022/08/21 03:42:17;;;;;;;288.88;19.60;;;;;17.40;96312.00;;;;8297253;28;20309;-73
2022/08/21 03:46:20;;;;;;;74.15;9.57;;;;;17.50;96314.00;;;;8295885;28;20222;-73
2022/08/21 03:50:24;;;;;;;202.75;15.68;;;;;17.50;96314.00;;;;8296878;28;20230;-73
2022/08/21 03:54:59;;;;;;;104.07;11.30;;;;;17.50;96313.00;;;;8295075;28;20230;-72
2022/08/21 03:59:03;;;;;;;35.30;7.72;;;;;17.50;96306.00;;;;8263900;28;20306;-72
2022/08/21 04:03:37;;;;;;;227.80;17.65;;;;;17.60;96317.00;;;;8257615;28;20735;-72
2022/08/21 04:07:41;;;;;;;96.65;10.02;;;;;17.60;96318.00;;;;8263526;28;20227;-72
2022/08/21 04:12:19;;;;;;;120.38;12.18;;;;;17.60;96327.00;;;;8263055;28;20321;-72
2022/08/21 04:16:22;;;;;;;64.40;9.07;;;;;17.70;96330.00;;;;8263759;28;20620;-71
2022/08/21 04:20:26;;;;;;;222.05;17.85;;;;;17.70;96329.00;;;;8263279;28;20592;-72
2022/08/21 04:25:03;;;;;;;424.35;23.52;;;;;17.60;96324.00;;;;8262664;28;20724;-71
2022/08/21 04:29:07;;;;;;;55.70;9.45;;;;;17.70;96324.00;;;;8263011;28;20667;-71
2022/08/21 04:33:12;;;;;;;36.58;8.20;;;;;17.70;96336.00;;;;8262842;28;20222;-71
2022/08/21 04:37:46;;;;;;;129.77;16.23;;;;;17.70;96340.00;;;;8262541;28;20674;-72
2022/08/21 04:41:50;;;;;;;175.70;19.95;;;;;17.70;96339.00;;;;8263067;28;20223;-72
2022/08/21 04:45:54;;;;;;;82.38;15.95;;;;;17.80;96339.00;;;;8262498;28;20218;-72
2022/08/21 04:49:58;;;;;;;198.07;21.92;;;;;17.90;96344.00;;;;8261872;28;20301;-72
2022/08/21 04:54:07;;;;;;;110.10;16.95;;;;;17.90;96337.00;;;;8261798;28;20379;-71
2022/08/21 04:58:12;;;;;;;104.93;16.88;;;;;17.90;96347.00;;;;8286554;28;20304;-71
2022/08/21 05:02:48;;;;;;;78.65;16.17;;;;;18.00;96352.00;;;;8294643;28;20225;-71
2022/08/21 05:06:53;;;;;;;172.27;19.30;;;;;18.00;96355.00;;;;8294657;28;20325;-71
2022/08/21 05:11:27;;;;;;;62.58;15.02;;;;;18.00;96347.00;;;;8294225;28;20255;-71
2022/08/21 05:15:31;;;;;;;64.97;15.13;;;;;18.00;96355.00;;;;8293729;28;20217;-71
2022/08/21 05:20:11;;;;;;;144.45;20.17;;;;;18.00;96357.00;;;;8294358;28;20245;-71
2022/08/21 05:24:15;;;;;;;79.80;17.08;;;;;18.10;96357.00;;;;8293748;28;20228;-71
2022/08/21 05:28:18;;;;;;;129.07;20.02;;;;;18.10;96366.00;;;;8294238;28;20224;-71
2022/08/21 05:32:22;;;;;;;123.13;20.33;;;;;18.20;96363.00;;;;8283901;28;20629;-70
2022/08/21 05:36:26;;;;;;;79.55;16.13;;;;;18.30;96369.00;;;;8293258;28;20221;-71
2022/08/21 05:40:30;;;;;;;106.10;18.50;;;;;18.30;96367.00;;;;8294129;28;20655;-71
2022/08/21 05:45:04;;;;;;;52.53;14.98;;;;;18.50;96376.00;;;;8294068;28;20262;-72
2022/08/21 05:49:07;;;;;;;164.63;22.15;;;;;18.60;96382.00;;;;8293234;28;20228;-74
2022/08/21 05:53:12;;;;;;;132.00;21.65;;;;;18.80;96382.00;;;;8293988;28;20218;-75
2022/08/21 05:57:46;;;;;;;50.30;17.23;;;;;18.90;96377.00;;;;8291535;28;20240;-76
2022/08/21 06:01:53;;;;;;;59.58;17.17;;;;;19.00;96376.00;;;;8293118;28;20598;-75
2022/08/21 06:05:56;;;;;;;86.97;19.95;;;;;19.10;96379.00;;;;8292231;28;20245;-78
2022/08/21 06:10:00;;;;;;;78.28;19.77;;;;;19.30;96381.00;;;;8293301;28;20636;-76
2022/08/21 06:14:35;;;;;;;64.85;16.83;;;;;19.20;96375.00;;;;8289235;28;20576;-73
2022/08/21 06:19:12;;;;;;;44.92;16.73;;;;;19.50;96380.00;;;;8287698;28;20305;-74
2022/08/21 06:23:49;;;;;;;61.20;16.85;;;;;19.70;96383.00;;;;8291819;28;20250;-73
2022/08/21 06:27:54;;;;;;;37.83;15.40;;;;;19.80;96372.00;;;;8296808;28;20226;-78
2022/08/21 06:32:32;;;;;;;55.63;18.55;;;;;20.00;96381.00;;;;8298203;28;20220;-78
2022/08/21 06:36:35;;;;;;;50.88;17.50;;;;;20.10;96390.00;;;;8299285;28;20654;-78
2022/08/21 06:40:39;;;;;;;51.33;18.52;;;;;20.20;96390.00;;;;8296986;28;20253;-77
2022/08/21 06:44:50;;;;;;;50.63;17.90;;;;;20.10;96388.00;;;;8298003;28;20571;-77
2022/08/21 06:48:54;;;;;;;45.05;17.92;;;;;20.00;96384.00;;;;8296816;28;20308;-76
2022/08/21 06:53:28;;;;;;;35.63;15.95;;;;;20.10;96384.00;;;;8296044;28;20228;-76
2022/08/21 06:58:04;;;;;;;38.15;16.70;;;;;20.40;96383.00;;;;8297105;28;20218;-75
2022/08/21 07:02:09;;;;;;;40.22;18.02;;;;;20.90;96375.00;;;;8265622;28;20227;-74
2022/08/21 07:06:43;;;;;;;38.38;17.27;;;;;21.10;96383.00;;;;8265535;28;20310;-76
2022/08/21 07:11:21;;;;;;;34.22;17.23;;;;;21.20;96378.00;;;;8265418;28;20550;-74
2022/08/21 07:15:55;;;;;;;39.58;18.17;;;;;21.30;96373.00;;;;8265307;28;20310;-75
2022/08/21 07:20:34;;;;;;;39.60;18.92;;;;;21.30;96378.00;;;;8264811;28;20309;-74
2022/08/21 07:25:08;;;;;;;39.63;18.90;;;;;22.10;96387.00;;;;8265084;28;20245;-74
2022/08/21 07:29:12;;;;;;;36.13;17.58;;;;;22.40;96379.00;;;;8264105;28;20219;-74
2022/08/21 07:33:49;;;;;;;33.90;19.25;;;;;22.50;96378.00;;;;8264785;28;20694;-74
2022/08/21 07:38:27;;;;;;;34.95;19.25;;;;;22.60;96381.00;;;;8264730;28;20628;-74
2022/08/21 07:43:01;;;;;;;30.00;17.92;;;;;22.70;96379.00;;;;8264204;28;20238;-73
2022/08/21 07:47:39;;;;;;;36.92;20.67;;;;;22.30;96378.00;;;;8263257;28;20226;-77
2022/08/21 07:52:15;;;;;;;32.58;19.73;;;;;22.30;96383.00;;;;8264435;28;20254;-77
2022/08/21 07:56:53;;;;;;;32.97;20.27;;;;;22.40;96389.00;;;;8252298;28;20218;-76
2022/08/21 08:06:13;;;;;;;35.13;20.90;;;;;22.80;96389.00;;;;8296008;28;20328;-76
2022/08/21 08:10:49;;;;;;;33.97;20.40;;;;;22.90;96387.00;;;;8296294;28;20260;-77
2022/08/21 08:15:26;;;;;;;37.63;22.73;;;;;23.20;96396.00;;;;8295740;28;20606;-76
2022/08/21 08:20:00;;;;;;;30.60;19.05;;;;;23.40;96400.00;;;;8296376;28;20297;-77
2022/08/21 08:24:39;;;;;;;34.83;22.90;;;;;23.60;96406.00;;;;8295610;28;20340;-76
2022/08/21 08:29:10;;;;;;;31.90;20.67;;;;;23.80;96402.00;;;;8295575;28;20236;-77
2022/08/21 08:33:15;;;;;;;30.85;20.58;;;;;23.80;96401.00;;;;8295880;28;20221;-79
2022/08/21 08:37:52;;;;;;;32.53;20.25;;;;;24.30;96392.00;;;;8295216;28;20722;-79
2022/08/21 08:42:31;;;;;;;27.35;19.27;;;;;24.70;96393.00;;;;8295461;28;20226;-79
2022/08/21 08:47:04;;;;;;;25.88;18.80;;;;;25.00;96389.00;;;;8294426;28;20221;-79
2022/08/21 08:51:44;;;;;;;24.55;18.08;;;;;24.70;96394.00;;;;8293046;28;20222;-77
2022/08/21 08:56:22;;;;;;;26.35;18.73;;;;;24.90;96402.00;;;;8294718;28;20735;-74
2022/08/21 09:00:25;;;;;;;24.65;18.02;;;;;25.70;96392.00;;;;8294381;28;20236;-74
2022/08/21 09:05:02;;;;;;;20.27;15.68;;;;;26.00;96391.00;;;;8294981;28;20275;-76
2022/08/21 09:09:47;;;;;;;17.92;14.07;;;;;27.10;96393.00;;;;8293839;28;20618;-76
2022/08/21 09:14:17;;;;;;;18.52;12.77;;;;;27.00;96389.00;;;;8295244;28;20275;-74
2022/08/21 09:18:54;;;;;;;11.77;10.52;;;;;27.90;96389.00;;;;8295132;28;20224;-74
2022/08/21 09:23:31;;;;;;;13.30;11.85;;;;;27.30;96382.00;;;;8294883;28;20646;-74
2022/08/21 09:28:12;;;;;;;11.82;10.15;;;;;26.90;96386.00;;;;8294226;28;20240;-74
2022/08/21 09:32:45;;;;;;;15.25;11.13;;;;;27.30;96385.00;;;;8294341;28;20316;-74
2022/08/21 09:36:51;;;;;;;13.70;11.18;;;;;27.10;96396.00;;;;8293789;28;20226;-74
2022/08/21 09:41:27;;;;;;;13.10;11.63;;;;;26.70;96389.00;;;;8294785;28;20233;-75
2022/08/21 09:46:11;;;;;;;16.95;13.50;;;;;26.10;96399.00;;;;8293648;28;20206;-75
2022/08/21 09:50:49;;;;;;;18.52;14.40;;;;;25.10;96395.00;;;;8292975;28;20305;-75
2022/08/21 09:59:53;;;;;;;22.58;15.40;;;;;25.40;96397.00;;;;8286883;28;20240;-76
2022/08/21 10:04:32;;;;;;;20.80;15.63;;;;;25.90;96402.00;;;;8300619;28;20249;-76
2022/08/21 10:08:38;;;;;;;17.75;14.57;;;;;25.90;96392.00;;;;8299403;28;20225;-77
2022/08/21 10:13:13;;;;;;;17.80;14.63;;;;;26.00;96403.00;;;;8299843;28;20317;-78
2022/08/21 10:17:50;;;;;;;24.55;14.68;;;;;26.20;96396.00;;;;8299656;28;20225;-79
2022/08/21 10:22:31;;;;;;;16.13;14.23;;;;;26.90;96392.00;;;;8299650;28;20300;-81
2022/08/21 10:27:06;;;;;;;19.25;15.68;;;;;27.70;96396.00;;;;8297360;28;20317;-83
2022/08/21 10:31:19;;;;;;;22.98;15.90;;;;;27.70;96391.00;;;;8299984;28;20224;-82
2022/08/21 10:35:54;;;;;;;20.50;16.20;;;;;26.70;96396.00;;;;8298951;28;20304;-84
2022/08/21 10:40:26;;;;;;;21.27;16.08;;;;;25.60;96388.00;;;;8299149;28;20225;-84
2022/08/21 10:45:03;;;;;;;21.98;16.88;;;;;25.10;96379.00;;;;8298752;28;20214;-85
2022/08/21 10:49:39;;;;;;;20.90;16.27;;;;;25.50;96368.00;;;;8298546;28;20217;-83
2022/08/21 10:53:51;;;;;;;19.95;16.60;;;;;26.00;96386.00;;;;8298566;28;20310;-87
2022/08/21 10:58:24;;;;;;;20.80;17.13;;;;;25.90;96381.00;;;;8299540;28;20713;-87
2022/08/21 11:02:58;;;;;;;19.60;15.65;;;;;26.20;96385.00;;;;8297950;28;20305;-86
2022/08/21 11:07:06;;;;;;;21.27;15.75;;;;;26.90;96371.00;;;;8298695;28;20221;-87
2022/08/21 11:11:43;;;;;;;20.40;15.40;;;;;27.10;96381.00;;;;8296971;28;20241;-86
2022/08/21 11:16:40;;;;;;;18.90;14.52;;;;;26.80;96386.00;;;;8298258;28;20241;-85
2022/08/21 11:21:11;;;;;;;18.35;15.00;;;;;26.70;96374.00;;;;8298301;28;20635;-84
2022/08/21 11:25:37;;;;;;;16.80;14.07;;;;;26.70;96372.00;;;;8298035;28;20267;-84
2022/08/21 11:30:14;;;;;;;15.75;12.60;;;;;27.00;96372.00;;;;8297541;28;20328;-83
2022/08/21 11:34:32;;;;;;;15.20;13.20;;;;;27.20;96365.00;;;;8296501;28;20226;-81
2022/08/21 11:38:40;;;;;;;14.35;12.30;;;;;27.20;96367.00;;;;8296665;28;20249;-82
2022/08/21 11:42:51;;;;;;;16.27;13.45;;;;;27.80;96362.00;;;;8297009;28;20650;-82
2022/08/21 11:47:03;;;;;;;15.88;12.65;;;;;28.10;96362.00;;;;8298173;28;20222;-82
2022/08/21 11:51:34;;;;;;;15.23;12.50;;;;;28.50;96353.00;;;;8297032;28;20766;-82
2022/08/21 11:56:10;;;;;;;15.45;12.52;;;;;28.20;96354.00;;;;8296616;28;20226;-84
2022/08/21 12:00:20;;;;;;;13.30;11.73;;;;;27.50;96348.00;;;;8294573;28;20363;-85
2022/08/21 12:04:54;;;;;;;16.35;13.80;;;;;27.00;96337.00;;;;8293957;28;20301;-82
2022/08/21 12:09:34;;;;;;;14.95;12.82;;;;;26.50;96347.00;;;;8296382;28;20669;-82
2022/08/21 12:14:04;;;;;;;12.25;10.63;;;;;26.30;96340.00;;;;8296256;28;20222;-82
2022/08/21 12:18:42;;;;;;;11.23;10.05;;;;;26.40;96332.00;;;;8295022;28;20313;-79
2022/08/21 12:23:17;;;;;;;11.40;9.38;;;;;26.30;96331.00;;;;8294900;28;20313;-80
2022/08/21 12:27:54;;;;;;;9.15;8.23;;;;;26.40;96335.00;;;;8275016;28;20242;-81
2022/08/21 12:32:29;;;;;;;13.68;8.35;;;;;26.40;96336.00;;;;8294943;28;20230;-79
2022/08/21 12:37:05;;;;;;;9.27;8.38;;;;;26.30;96324.00;;;;8295633;28;20294;-79
2022/08/21 12:41:44;;;;;;;7.97;7.18;;;;;25.90;96325.00;;;;8296031;28;20271;-78
2022/08/21 12:46:19;;;;;;;8.43;7.63;;;;;26.00;96324.00;;;;8294813;28;20288;-78
2022/08/21 12:50:33;;;;;;;7.50;6.78;;;;;26.10;96312.00;;;;8295710;28;20230;-81
2022/08/21 12:54:40;;;;;;;7.20;6.25;;;;;26.20;96307.00;;;;8284121;28;20249;-78
2022/08/21 12:59:14;;;;;;;7.47;6.70;;;;;26.30;96305.00;;;;8294407;28;20224;-78
2022/08/21 13:03:19;;;;;;;7.82;6.07;;;;;26.50;96291.00;;;;8294718;28;20305;-78
2022/08/21 13:07:27;;;;;;;7.63;6.75;;;;;26.60;96288.00;;;;8295364;28;20222;-78
2022/08/21 13:11:59;;;;;;;8.88;6.15;;;;;26.80;96289.00;;;;8294755;28;20230;-79
2022/08/21 13:16:33;;;;;;;6.72;6.03;;;;;26.90;96289.00;;;;8295242;28;20244;-77
2022/08/21 13:20:42;;;;;;;6.70;5.28;;;;;27.10;96291.00;;;;8294505;28;20541;-77
2022/08/21 13:25:13;;;;;;;6.47;5.88;;;;;27.60;96282.00;;;;8294757;28;20325;-77
2022/08/21 13:29:48;;;;;;;5.82;5.32;;;;;27.80;96287.00;;;;8294400;28;20217;-77
2022/08/21 13:34:25;;;;;;;6.28;5.18;;;;;27.40;96286.00;;;;8284691;28;20225;-78
2022/08/21 13:38:32;;;;;;;6.22;5.63;;;;;27.60;96275.00;;;;8301109;28;20293;-77
2022/08/21 13:42:35;;;;;;;7.35;5.18;;;;;28.20;96270.00;;;;8301976;28;20305;-77
2022/08/21 13:47:14;;;;;;;5.80;5.18;;;;;29.00;96265.00;;;;8300708;28;20742;-77
2022/08/21 13:51:18;;;;;;;6.07;5.50;;;;;29.40;96253.00;;;;8300148;28;20222;-76
2022/08/21 13:55:54;;;;;;;5.05;4.65;;;;;30.00;96252.00;;;;8301065;28;20567;-76
2022/08/21 14:00:14;;;;;;;4.90;4.50;;;;;30.60;96257.00;;;;8300539;28;20695;-76
2022/08/21 14:04:52;;;;;;;5.63;5.13;;;;;30.80;96258.00;;;;8300668;28;20241;-76
2022/08/21 14:08:59;;;;;;;5.85;5.35;;;;;30.50;96255.00;;;;8300399;28;20214;-76
2022/08/21 14:13:07;;;;;;;6.70;5.50;;;;;29.90;96261.00;;;;8300567;28;20667;-76
2022/08/21 14:17:39;;;;;;;5.18;4.72;;;;;29.00;96258.00;;;;8298354;28;20224;-76
2022/08/21 14:22:24;;;;;;;4.90;4.50;;;;;29.50;96262.00;;;;8300017;28;20303;-76
2022/08/21 14:27:02;;;;;;;4.50;4.10;;;;;30.50;96246.00;;;;8300044;28;20225;-77
2022/08/21 14:31:16;;;;;;;5.22;4.18;;;;;31.10;96250.00;;;;8300148;28;20552;-76
2022/08/21 14:35:42;;;;;;;4.63;4.22;;;;;31.10;96260.00;;;;8299216;28;20253;-76
2022/08/21 14:40:17;;;;;;;5.35;4.05;;;;;31.20;96250.00;;;;8299285;28;20344;-76
2022/08/21 14:44:51;;;;;;;4.72;3.80;;;;;31.20;96252.00;;;;8298784;28;20731;-76
2022/08/21 14:48:56;;;;;;;4.68;3.70;;;;;30.50;96249.00;;;;8298115;28;20304;-77
2022/08/21 14:52:59;;;;;;;5.10;4.43;;;;;29.90;96241.00;;;;8298826;28;20224;-76
2022/08/21 14:57:06;;;;;;;4.30;4.00;;;;;29.30;96243.00;;;;8299463;28;20257;-76
2022/08/21 15:01:11;;;;;;;4.03;3.72;;;;;29.10;96255.00;;;;8298651;28;20234;-77
2022/08/21 15:05:16;;;;;;;3.95;3.55;;;;;29.20;96233.00;;;;8298249;28;20226;-76
2022/08/21 15:09:35;;;;;;;4.25;3.80;;;;;29.40;96238.00;;;;8298934;28;20253;-76
2022/08/21 15:14:15;;;;;;;4.20;3.88;;;;;29.40;96238.00;;;;8298693;28;20663;-76
2022/08/21 15:18:18;;;;;;;4.10;3.38;;;;;29.30;96232.00;;;;8287740;28;20230;-76
2022/08/21 15:22:56;;;;;;;3.42;3.15;;;;;29.30;96229.00;;;;8297466;28;20221;-75
2022/08/21 15:27:31;;;;;;;3.50;3.30;;;;;28.90;96234.00;;;;8296801;28;20297;-75
2022/08/21 15:32:13;;;;;;;4.00;3.70;;;;;28.90;96231.00;;;;8297645;28;20232;-75
2022/08/21 15:36:16;;;;;;;3.67;3.38;;;;;28.90;96236.00;;;;8298297;28;20222;-75
2022/08/21 15:40:21;;;;;;;3.60;3.33;;;;;29.00;96234.00;;;;8297669;28;20222;-75
2022/08/21 15:44:58;;;;;;;3.83;3.53;;;;;29.00;96233.00;;;;8295616;28;20738;-74
2022/08/21 15:49:34;;;;;;;4.30;3.88;;;;;29.40;96222.00;;;;8296851;28;20230;-73
2022/08/21 15:53:39;;;;;;;3.72;3.42;;;;;29.70;96230.00;;;;8297374;28;20226;-78
2022/08/21 15:58:16;;;;;;;5.07;3.40;;;;;29.40;96215.00;;;;8295425;28;20731;-78
2022/08/21 16:02:24;;;;;;;2.92;2.75;;;;;29.30;96214.00;;;;8297078;28;20317;-77
2022/08/21 16:06:55;;;;;;;4.40;4.00;;;;;29.10;96219.00;;;;8296128;28;20233;-72
2022/08/21 16:11:20;;;;;;;3.40;3.10;;;;;29.00;96218.00;;;;8294676;28;20242;-72
2022/08/21 16:16:00;;;;;;;3.67;3.20;;;;;29.10;96213.00;;;;8294453;28;20287;-71
2022/08/21 16:20:33;;;;;;;3.90;3.60;;;;;29.10;96212.00;;;;8295328;28;20221;-71
2022/08/21 16:25:11;;;;;;;3.42;3.22;;;;;29.10;96219.00;;;;8294322;28;20225;-71
2022/08/21 16:29:47;;;;;;;3.75;3.45;;;;;29.10;96218.00;;;;8295302;28;20601;-71
2022/08/21 16:34:26;;;;;;;3.17;2.97;;;;;29.20;96208.00;;;;8295138;28;20229;-72
2022/08/21 16:39:00;;;;;;;3.30;3.10;;;;;29.20;96205.00;;;;8295572;28;20226;-71
2022/08/21 16:43:38;;;;;;;3.35;3.15;;;;;29.50;96203.00;;;;8282340;28;20554;-72
2022/08/21 16:48:12;;;;;;;3.40;3.13;;;;;29.70;96204.00;;;;8294221;28;20547;-72
2022/08/21 16:52:50;;;;;;;3.92;3.53;;;;;29.70;96203.00;;;;8294948;28;20249;-71
2022/08/21 16:57:24;;;;;;;3.30;3.10;;;;;29.50;96195.00;;;;8294420;28;20225;-67
2022/08/21 17:01:31;;;;;;;3.45;3.15;;;;;29.80;96200.00;;;;8289641;28;20232;-70
2022/08/21 17:05:55;;;;;;;3.50;3.25;;;;;29.80;96201.00;;;;8294592;28;20226;-70
2022/08/21 17:10:34;;;;;;;3.00;2.80;;;;;29.80;96202.00;;;;8292892;28;20300;-71
2022/08/21 17:15:15;;;;;;;3.00;2.80;;;;;29.70;96210.00;;;;8293325;28;20230;-69
2022/08/21 17:19:48;;;;;;;4.05;3.25;;;;;29.40;96206.00;;;;8292941;28;20214;-72
2022/08/21 17:24:25;;;;;;;3.30;3.10;;;;;28.90;96209.00;;;;8280896;28;20594;-71
2022/08/21 17:29:01;;;;;;;3.05;2.85;;;;;27.90;96202.00;;;;8289929;28;20237;-69
2022/08/21 17:33:49;;;;;;;3.10;2.90;;;;;27.10;96205.00;;;;8293339;28;20225;-69
2022/08/21 17:37:56;;;;;;;3.30;3.08;;;;;26.50;96204.00;;;;8281282;28;20297;-69
2022/08/21 17:42:28;;;;;;;6.20;4.63;;;;;26.00;96195.00;;;;8294225;28;20635;-74
2022/08/21 17:47:04;;;;;;;3.70;3.40;;;;;25.60;96202.00;;;;8293042;28;20221;-74
2022/08/21 17:51:38;;;;;;;3.40;3.10;;;;;25.20;96202.00;;;;8294243;28;20225;-74
2022/08/21 17:56:14;;;;;;;3.15;2.95;;;;;24.80;96203.00;;;;8293708;28;20305;-71
2022/08/21 18:00:51;;;;;;;3.50;3.20;;;;;24.40;96208.00;;;;8294189;28;20216;-70
2022/08/21 18:10:29;;;;;;;3.03;2.83;;;;;23.60;96212.00;;;;8293339;28;20650;-71
2022/08/21 18:15:04;;;;;;;3.25;3.05;;;;;23.20;96210.00;;;;8293381;28;20695;-70
2022/08/21 18:19:41;;;;;;;3.60;3.33;;;;;22.90;96211.00;;;;8294268;28;20218;-70
2022/08/21 18:24:16;;;;;;;4.55;3.40;;;;;22.60;96218.00;;;;8298584;28;20237;-71
2022/08/21 18:28:26;;;;;;;3.63;3.42;;;;;22.30;96219.00;;;;8299374;28;20222;-72
2022/08/21 18:33:00;;;;;;;3.80;3.50;;;;;22.00;96219.00;;;;8298100;28;20567;-71
2022/08/21 18:37:37;;;;;;;4.07;3.67;;;;;21.60;96222.00;;;;8299844;28;20249;-72
2022/08/21 18:42:15;;;;;;;4.53;4.13;;;;;21.40;96228.00;;;;8297967;28;20221;-72
2022/08/21 18:46:52;;;;;;;4.45;4.00;;;;;21.20;96230.00;;;;8298845;28;20218;-72
2022/08/21 18:50:55;;;;;;;3.63;3.35;;;;;21.20;96223.00;;;;8298876;28;20264;-72
2022/08/21 18:54:59;;;;;;;4.13;3.83;;;;;21.10;96223.00;;;;8298341;28;20591;-73
2022/08/21 18:59:36;;;;;;;3.83;3.40;;;;;21.00;96228.00;;;;8298651;28;20225;-73
2022/08/21 19:04:12;;;;;;;4.60;3.22;;;;;20.90;96219.00;;;;8294754;28;20325;-74
2022/08/21 19:08:49;;;;;;;3.92;3.10;;;;;20.80;96210.00;;;;8264387;28;20227;-74
2022/08/21 19:13:27;;;;;;;3.40;3.10;;;;;20.70;96220.00;;;;8265471;28;20254;-73
2022/08/21 19:18:02;;;;;;;3.38;3.17;;;;;20.60;96232.00;;;;8264086;28;20556;-73
2022/08/21 19:22:36;;;;;;;4.25;3.95;;;;;20.50;96235.00;;;;8265147;28;20276;-72
2022/08/21 19:27:15;;;;;;;6.82;4.20;;;;;20.40;96231.00;;;;8263882;28;20234;-74
2022/08/21 19:31:50;;;;;;;10.38;6.03;;;;;20.20;96239.00;;;;8264859;28;20241;-73
2022/08/21 19:35:55;;;;;;;4.75;4.03;;;;;20.10;96229.00;;;;8264365;28;20222;-73
2022/08/21 19:39:58;;;;;;;4.55;4.15;;;;;20.00;96227.00;;;;8264565;28;20672;-73
2022/08/21 19:44:35;;;;;;;4.75;3.67;;;;;19.80;96232.00;;;;8264412;28;20273;-73
2022/08/21 19:49:15;;;;;;;5.90;4.40;;;;;19.60;96232.00;;;;8265292;28;20222;-72
2022/08/21 19:53:52;;;;;;;5.32;4.82;;;;;19.40;96222.00;;;;8264434;28;20222;-73
2022/08/21 19:58:32;;;;;;;4.90;4.35;;;;;19.20;96228.00;;;;8262976;28;20214;-72
2022/08/21 20:03:03;;;;;;;5.60;4.47;;;;;19.10;96217.00;;;;8263690;28;20619;-73
2022/08/21 20:12:26;;;;;;;5.32;4.75;;;;;18.80;96218.00;;;;8296388;28;20232;-73
2022/08/21 20:16:31;;;;;;;4.93;4.40;;;;;18.70;96230.00;;;;8295308;28;20295;-73
2022/08/21 20:21:05;;;;;;;5.15;4.47;;;;;18.60;96215.00;;;;8296191;28;20241;-75
2022/08/21 20:25:41;;;;;;;8.57;4.97;;;;;18.50;96221.00;;;;8294299;28;20317;-69
2022/08/21 20:30:20;;;;;;;5.63;4.68;;;;;18.30;96216.00;;;;8296766;28;20607;-71
2022/08/21 20:34:24;;;;;;;5.05;4.55;;;;;18.20;96214.00;;;;8295679;28;20237;-71
2022/08/21 20:38:28;;;;;;;5.22;4.72;;;;;18.10;96219.00;;;;8295914;28;20217;-71
2022/08/21 20:42:31;;;;;;;5.40;4.90;;;;;18.10;96219.00;;;;8295593;28;20308;-71
2022/08/21 20:47:11;;;;;;;7.50;4.90;;;;;18.00;96218.00;;;;8295035;28;20225;-71
2022/08/21 20:51:24;;;;;;;6.20;4.47;;;;;17.90;96221.00;;;;8294474;28;20230;-71
2022/08/21 20:55:51;;;;;;;10.18;4.28;;;;;17.80;96240.00;;;;8295638;28;20230;-71
2022/08/21 20:59:59;;;;;;;4.78;4.30;;;;;18.20;96235.00;;;;8292100;28;20248;-71
2022/08/21 21:04:07;;;;;;;4.75;4.18;;;;;18.30;96239.00;;;;8295236;28;20711;-71
2022/08/21 21:08:17;;;;;;;4.50;4.07;;;;;18.40;96243.00;;;;8294501;28;20383;-71
2022/08/21 21:12:28;;;;;;;4.53;4.13;;;;;18.50;96239.00;;;;8295071;28;20316;-71
2022/08/21 21:16:37;;;;;;;7.30;4.13;;;;;18.50;96246.00;;;;8294670;28;20594;-71
2022/08/21 21:20:49;;;;;;;5.90;4.60;;;;;18.60;96243.00;;;;8293753;28;20276;-70
2022/08/21 21:25:00;;;;;;;4.80;4.32;;;;;18.70;96236.00;;;;8294238;28;20229;-70
2022/08/21 21:29:31;;;;;;;6.47;4.70;;;;;18.60;96245.00;;;;8295231;28;20624;-71
2022/08/21 21:33:35;;;;;;;7.97;4.95;;;;;18.60;96250.00;;;;8294265;28;20229;-71
2022/08/21 21:37:47;;;;;;;5.97;4.90;;;;;18.60;96256.00;;;;8295180;28;20648;-69
2022/08/21 21:41:59;;;;;;;9.90;5.13;;;;;18.60;96252.00;;;;8294927;28;20305;-70
2022/08/21 21:46:13;;;;;;;5.65;4.93;;;;;18.60;96256.00;;;;8294497;28;20269;-70
2022/08/21 21:50:45;;;;;;;6.25;5.20;;;;;18.60;96257.00;;;;8294060;28;20644;-70
2022/08/21 21:55:02;;;;;;;6.70;5.53;;;;;18.60;96258.00;;;;8294016;28;20218;-70